x

Ne Puerto Rico - 170 Nm Nne Of San Juan, P R (41043) Wave Buoy

10:50pm - Wed 24th Dec 2014 All times are AST. -4 hours from GMT.

  • Sig Wave height 4.6ft
  • Swell Direction
  • Peak Period 5s
  • Average Period 5s
  • Wind
    16mph, 20mph gusts
  • Sea Temp 80°f
  • Air Temp 78°f
  • Sea Pressure 1020mb
  • Ne Puerto Rico  - 170 Nm Nne Of San Juan,  P R
  • Ne Puerto Rico  - 170 Nm Nne Of San Juan,  P R

More Historic Weather Station data

Upgrade to MSW Pro to gain access to the past 30 days of data for over 8000 Wavebouys and Weather Stations around the globe.

Join Pro

Comparision Forecast

View Surf forecast
   
Wed 12/24 10:50pm 4.5ft 5s 5s 16 20 mph 1020mb 80f 78f
9:50pm 4.5ft 8s 5s 18 27 mph 1020mb 80f 79f
8:50pm 5ft 8s 5s 16 20 mph 1019.8mb 80f 79f
7:50pm 5ft 8s 5s 18 20 mph 1019.3mb 80f 79f
6:50pm 5ft 8s 5s 16 20 mph 1018.8mb 80f 79f
5:50pm 5ft 8s 6s 18 20 mph 1018.1mb 80f 79f
4:50pm 4.5ft 8s 5s 18 22 mph 1017.4mb 81f 79f
3:50pm 4.5ft 8s 5s 16 20 mph 1017.2mb 81f 79f
2:50pm 5ft 8s 6s 16 18 mph 1017.3mb 81f 79f
1:50pm 5ft 6s 5s 13 18 mph 1017.5mb 81f 79f
12:50pm 5ft 8s 5s 16 20 mph 1018.2mb 80f 79f
11:50am 5ft 8s 5s 16 20 mph 1019.1mb 80f 79f
10:50am 5.5ft 9s 5s 18 20 mph 1019.7mb 80f 79f
9:50am 6ft 8s 5s 18 22 mph 1019.8mb 80f 79f
8:50am 5ft 6s 5s 16 20 mph 1019.2mb 80f 79f
7:50am 5ft 8s 5s 18 22 mph 1018.3mb 80f 79f
6:50am 5ft 8s 6s 16 18 mph 1017.8mb 80f 78f
5:50am 5ft 8s 5s 16 18 mph 1017.5mb 80f 79f
4:50am 5.5ft 7s 6s 16 20 mph 1017.4mb 80f 78f
3:50am 5ft 7s 6s 18 20 mph 1017.3mb 80f 78f
2:50am 5ft 7s 5s 18 20 mph 1017.7mb 80f 78f
1:50am 5ft 7s 5s 18 20 mph 1018.3mb 80f 79f
12:50am 5.5ft 7s 6s 18 20 mph 1018.7mb 80f 79f
Tue 12/23 11:50pm 5ft 8s 5s 16 20 mph 1018.9mb 80f 79f
10:50pm 5.5ft 6s 5s 20 22 mph 1018.9mb 80f 79f
9:50pm 5.5ft 7s 6s 18 20 mph 1018.8mb 80f 79f
8:50pm 5ft 6s 5s 18 22 mph 1018.6mb 80f 79f
7:50pm 5ft 7s 6s 16 20 mph 1018.2mb 80f 79f
6:50pm 5.5ft 7s 5s 16 20 mph 1017.8mb 80f 79f
5:50pm 6ft 7s 6s 16 18 mph 1017.5mb 80f 79f
4:50pm 5.5ft 7s 6s 16 20 mph 1017.2mb 80f 79f
3:50pm 6ft 6s 6s 16 20 mph 1016.9mb 81f 80f
2:50pm 5.5ft 7s 5s 16 20 mph 1017.1mb 81f 80f
1:50pm 6ft 7s 6s 18 20 mph 1017.5mb 81f 80f
12:50pm 6ft 7s 6s 20 25 mph 1017.9mb 81f 78f
11:50am 6ft 7s 5s 18 20 mph 1018.7mb 81f 80f
10:50am 5.5ft 7s 5s 18 22 mph 1018.9mb 81f 80f
9:50am 6ft 7s 6s 20 22 mph 1019.1mb 81f 80f
8:50am 6ft 7s 5s 20 22 mph 1018.8mb 81f 79f
7:50am 6ft 8s 6s 20 22 mph 1017.8mb 80f 80f
6:50am 5.5ft 9s 6s 18 22 mph 1017.3mb 80f 80f
5:50am 5.5ft 9s 6s 9 11 mph 1017.2mb 80f 78f
4:50am 6ft 6s 5s 18 20 mph 1017.2mb 80f 77f
3:50am 6ft 7s 6s 25 29 mph 1016.6mb 80f 77f
2:50am 6ft 7s 6s 22 25 mph 1017mb 80f 77f
1:50am 6ft 9s 6s 22 27 mph 1017.7mb 80f 77f
12:50am 5ft 9s 6s 16 20 mph 1018.4mb 80f 78f
Mon 12/22 11:50pm 5ft 9s 6s 13 16 mph 1018.5mb 80f 79f
10:50pm 5ft 9s 6s 16 18 mph 1018.5mb 80f 80f
9:50pm 5ft 9s 6s 11 13 mph 1018.5mb 80f 79f
7:50pm 5ft 8s 6s 11 13 mph 1017.9mb 81f 79f
6:50pm 5ft 10s 6s 11 16 mph 1017.6mb 81f 79f
5:50pm 5ft 9s 6s 11 13 mph 1017mb 81f 80f
4:50pm 5ft 8s 6s 11 13 mph 1017mb 81f 80f
3:50pm 5ft 10s 6s 11 13 mph 1016.9mb 81f 80f
2:50pm 5.5ft 10s 6s 11 13 mph 1017mb 81f 80f
1:50pm 5ft 9s 6s 13
mph
1017.5mb 81f 80f
12:50pm 5ft 9s 6s 13 18 mph 1018.4mb 81f 79f
11:50am 5.5ft 8s 6s 13 16 mph 1018.9mb 81f 78f
10:50am 6ft 8s 6s 16 22 mph 1019.6mb 81f 77f
9:50am 5.5ft 6s 5s 16 18 mph 1019.6mb 81f 78f
7:50am 6ft 6s 5s 22 25 mph 1018.2mb 81f 78f
6:50am 5.5ft 6s 5s 20 25 mph 1017.8mb 81f 78f
5:50am 6ft 6s 5s 25 29 mph 1017.3mb 81f 78f
4:50am 6ft 6s 6s 20 25 mph 1017.2mb 81f 79f
3:50am 5ft 8s 5s 20 22 mph 1017.5mb 81f 79f
2:50am 5ft 9s 5s 18 22 mph 1018mb 81f 79f
1:50am 5ft 9s 5s 18 22 mph 1018.7mb 81f 79f
12:50am 4.5ft 9s 5s 18 20 mph 1019.3mb 81f 79f
Sun 12/21 11:50pm 5ft 9s 5s 18 20 mph 1019.6mb 81f 79f
10:50pm 4.5ft 9s 5s 16 18 mph 1020mb 81f 79f
9:50pm  -   -   -  16 20 mph 1020.1mb 81f 79f
8:50pm 5ft 10s 5s 16 20 mph 1019.8mb 81f 79f
7:50pm 5ft 8s 5s 18 22 mph 1019.3mb 81f 79f
6:50pm 4.5ft 10s 5s 18 22 mph 1018.6mb 81f 79f
5:50pm 5ft 9s 6s 16 20 mph 1018.2mb 81f 79f
4:50pm 5ft 9s 6s 16 18 mph 1018mb 81f 79f
3:50pm 5ft 10s 6s 16 18 mph 1018.1mb 81f 79f
2:50pm 5ft 9s 6s 13 18 mph 1018.2mb 81f 79f
1:50pm 5ft 8s 5s 13 16 mph 1018.8mb 80f 79f
12:50pm 5ft 10s 6s 16 20 mph 1019.7mb 80f 79f
11:50am 5ft 10s 6s 16 18 mph 1020.5mb 80f 79f
10:50am 5ft 10s 6s 16 18 mph 1020.8mb 80f 79f
9:50am 5ft 10s 6s 16 18 mph 1020.6mb 80f 79f
8:50am 5ft 9s 6s 16 18 mph 1020mb 80f 79f
7:50am 5.5ft 10s 6s 16 18 mph 1019.1mb 80f 78f
6:50am 5ft 9s 6s 13 16 mph 1018.5mb 80f 78f
5:50am 5.5ft 10s 6s 13 16 mph 1018.2mb 80f 78f
4:50am 5ft 9s 6s 13 18 mph 1017.9mb 80f 78f
3:50am 5ft 9s 6s 13 16 mph 1017.9mb 80f 78f